Terminal Aerodrome Forecast
Issued by NWS Pocatello, ID

Home | Current Version | Previous Version | Text Only | Print | Product List | Glossary On
Versions: 1 2 3 4 5 6 7 8 9 10 11 12 13 14
000
FTUS45 KPIH 292323
TAFPIH
TAF
KPIH 292323Z 3000/3024 21020G29KT P6SM VCTS OVC100CB
      TEMPO 3000/3004 VRB20G40KT -TSRA OVC040CB
     FM300700 21011KT P6SM VCSH BKN080
     FM301800 25020G32KT P6SM SCT120=

USA.gov is the U.S. government's official web portal to all federal, state and local government web resources and services.